Time;durP1;ratioP1;P1;durP2;ratioP2;P2;SDS_P1;SDS_P2;PMS_P1;PMS_P2;Temp;Humidity;BMP_temperature;BMP_pressure;BME280_temperature;BME280_humidity;BME280_pressure;Samples;Min_cycle;Max_cycle;Signal;HPM_P1;HPM_P2
2022/12/17 13:06:54;;;;;;;2.42;2.30;;;14.70;89.30;;;;;;4929692;29;20286;-70
2022/12/17 13:09:28;;;;;;;3.38;2.33;;;14.60;89.20;;;;;;4928961;29;20253;-70
2022/12/17 13:12:02;;;;;;;2.17;2.08;;;14.60;89.00;;;;;;4929272;29;20199;-70
2022/12/17 13:14:52;;;;;;;2.40;2.30;;;14.50;89.20;;;;;;4928209;29;20199;-70
2022/12/17 13:17:30;;;;;;;2.20;2.10;;;14.50;89.20;;;;;;4927566;29;20626;-70
2022/12/17 13:19:55;;;;;;;2.50;2.30;;;14.30;89.10;;;;;;4926823;29;20249;-70
2022/12/17 13:22:21;;;;;;;2.28;2.10;;;14.30;89.30;;;;;;4927253;29;20218;-71
2022/12/17 13:24:49;;;;;;;2.92;2.38;;;14.30;89.50;;;;;;4926716;29;20198;-70
2022/12/17 13:27:32;;;;;;;3.85;3.30;;;14.30;89.40;;;;;;4925113;29;20228;-71
2022/12/17 13:30:21;;;;;;;2.92;2.72;;;14.30;88.90;;;;;;4928762;28;20219;-70
2022/12/17 13:33:05;;;;;;;4.65;3.05;;;14.20;88.90;;;;;;4988009;28;20182;-70
2022/12/17 13:35:39;;;;;;;4.00;2.97;;;14.20;89.50;;;;;;5041169;28;20260;-70
2022/12/17 13:38:05;;;;;;;4.15;3.70;;;14.20;89.30;;;;;;5081989;28;20496;-70
2022/12/17 13:40:42;;;;;;;2.97;2.75;;;14.10;89.20;;;;;;5077783;28;20182;-70
2022/12/17 13:43:17;;;;;;;4.60;2.70;;;13.90;90.00;;;;;;5077681;28;20182;-71
2022/12/17 13:45:43;;;;;;;4.30;2.28;;;13.90;90.20;;;;;;5079963;28;20186;-71
2022/12/17 13:48:20;;;;;;;4.78;2.53;;;13.90;90.30;;;;;;5079312;28;20964;-70
2022/12/17 13:50:54;;;;;;;2.20;2.00;;;13.80;90.30;;;;;;5079129;28;20213;-70
2022/12/17 13:53:19;;;;;;;1.67;1.67;;;13.70;90.10;;;;;;5078418;28;20174;-70
2022/12/17 13:55:53;;;;;;;1.88;1.48;;;13.70;90.20;;;;;;5081547;28;20170;-71
2022/12/17 13:58:30;;;;;;;1.63;1.52;;;13.60;90.70;;;;;;5080265;28;20209;-70
2022/12/17 14:01:10;;;;;;;1.95;1.85;;;13.60;90.50;;;;;;5078848;28;20194;-70
2022/12/17 14:03:37;;;;;;;2.20;2.00;;;13.70;90.70;;;;;;5074920;28;20185;-71
2022/12/17 14:06:08;;;;;;;2.60;1.95;;;13.70;91.80;;;;;;5080519;28;20642;-71
2022/12/17 14:08:34;;;;;;;2.10;1.90;;;13.80;91.70;;;;;;5080829;28;20190;-72
2022/12/17 14:13:47;;;;;;;2.60;2.42;;;13.90;91.40;;;;;;5081089;28;20242;-71
2022/12/17 14:16:18;;;;;;;2.75;1.90;;;14.00;90.90;;;;;;5081811;28;20190;-71
2022/12/17 14:18:56;;;;;;;3.10;2.08;;;14.00;90.40;;;;;;5081012;28;20743;-70
2022/12/17 14:21:23;;;;;;;2.75;1.88;;;14.00;90.20;;;;;;5078208;28;20178;-69
2022/12/17 14:23:51;;;;;;;2.67;2.47;;;13.90;90.50;;;;;;5081428;28;20182;-70
2022/12/17 14:26:17;;;;;;;2.85;2.67;;;14.00;90.50;;;;;;5080339;28;20202;-70
2022/12/17 14:28:48;;;;;;;3.05;2.78;;;13.80;90.20;;;;;;5080765;28;20194;-70
2022/12/17 14:31:14;;;;;;;2.33;2.22;;;13.80;90.10;;;;;;5079582;28;20215;-71
2022/12/17 14:33:41;;;;;;;5.45;2.88;;;13.80;90.50;;;;;;5081898;28;20210;-71
2022/12/17 14:36:14;;;;;;;3.00;2.80;;;13.70;90.40;;;;;;5080795;28;20197;-71
2022/12/17 14:39:12;;;;;;;3.50;2.15;;;13.60;90.00;;;;;;5077702;28;20595;-70
2022/12/17 14:44:28;;;;;;;5.15;2.20;;;13.50;90.50;;;;;;5060671;28;20202;-70
2022/12/17 14:47:08;;;;;;;2.03;1.85;;;13.40;90.20;;;;;;5063273;28;20249;-70
2022/12/17 14:49:36;;;;;;;3.03;2.60;;;13.40;90.40;;;;;;5064729;28;20194;-70
2022/12/17 14:52:12;;;;;;;3.58;2.30;;;13.30;90.60;;;;;;5065173;28;20198;-70
2022/12/17 14:54:45;;;;;;;3.40;3.10;;;13.20;90.60;;;;;;5060834;28;20213;-72
2022/12/17 14:57:20;;;;;;;2.67;2.50;;;13.20;90.90;;;;;;5062019;28;20213;-72
2022/12/17 14:59:46;;;;;;;3.00;2.80;;;13.10;91.00;;;;;;5060494;28;20190;-72
2022/12/17 15:02:22;;;;;;;3.47;2.83;;;13.10;91.30;;;;;;5064625;28;20194;-69
2022/12/17 15:04:50;;;;;;;4.18;3.75;;;13.00;91.00;;;;;;5059049;28;20272;-71
2022/12/17 15:07:24;;;;;;;4.60;3.58;;;13.00;91.80;;;;;;5064971;28;20218;-70
2022/12/17 15:09:51;;;;;;;5.05;3.60;;;12.90;92.00;;;;;;5066792;28;20189;-72
2022/12/17 15:12:21;;;;;;;9.25;3.92;;;12.90;92.20;;;;;;5063688;28;20194;-71
2022/12/17 15:14:47;;;;;;;4.72;4.25;;;12.80;92.00;;;;;;5061829;28;20367;-71
2022/12/17 15:17:13;;;;;;;3.53;3.22;;;12.70;92.50;;;;;;5050643;28;20255;-70
2022/12/17 15:19:39;;;;;;;4.47;4.03;;;12.50;93.10;;;;;;5079658;28;20190;-69
2022/12/17 15:22:05;;;;;;;4.22;3.85;;;12.50;92.80;;;;;;5080506;28;20698;-70
2022/12/17 15:24:31;;;;;;;3.60;3.35;;;12.50;93.00;;;;;;5078304;28;20283;-70
2022/12/17 15:26:56;;;;;;;6.07;3.90;;;12.40;92.90;;;;;;5076600;28;20611;-71
2022/12/17 15:29:23;;;;;;;4.00;3.67;;;12.40;93.20;;;;;;5079823;28;20182;-70
2022/12/17 15:31:49;;;;;;;6.22;3.60;;;12.30;92.70;;;;;;5080625;28;20194;-70
2022/12/17 15:34:15;;;;;;;5.40;3.85;;;12.10;93.40;;;;;;5079120;28;20189;-71
2022/12/17 15:36:41;;;;;;;3.33;3.10;;;12.10;93.30;;;;;;5080209;28;20182;-71
2022/12/17 15:39:08;;;;;;;5.95;3.20;;;12.10;93.10;;;;;;5079654;28;20182;-70
2022/12/17 15:44:17;;;;;;;3.00;2.65;;;12.00;92.50;;;;;;5081163;28;20247;-70
2022/12/17 15:46:43;;;;;;;4.82;3.15;;;12.00;92.50;;;;;;5077350;28;20202;-70
2022/12/17 15:49:09;;;;;;;4.13;3.05;;;12.00;92.40;;;;;;5077976;28;20178;-69
2022/12/17 15:51:34;;;;;;;3.97;3.45;;;11.90;92.30;;;;;;5081068;28;20178;-69
2022/12/17 15:54:00;;;;;;;3.58;3.10;;;11.90;92.30;;;;;;5077661;28;20175;-70
2022/12/17 15:56:27;;;;;;;4.03;3.65;;;11.90;92.50;;;;;;5081030;28;20232;-69
2022/12/17 15:58:55;;;;;;;9.00;6.03;;;11.90;92.90;;;;;;5080051;28;20178;-68
2022/12/17 16:01:21;;;;;;;6.35;5.68;;;11.90;93.30;;;;;;5076796;28;20248;-70
2022/12/17 16:03:47;;;;;;;6.65;4.57;;;11.90;93.40;;;;;;5078627;28;21129;-70
2022/12/17 16:06:13;;;;;;;6.00;4.22;;;11.80;93.10;;;;;;5080552;28;20217;-70
2022/12/17 16:08:39;;;;;;;5.30;4.80;;;11.80;93.20;;;;;;5076635;28;20178;-72
2022/12/17 16:11:10;;;;;;;7.57;4.80;;;11.80;93.00;;;;;;5075383;28;20190;-73
2022/12/17 16:13:37;;;;;;;7.45;5.22;;;11.70;92.80;;;;;;5078849;28;21189;-69
2022/12/17 16:16:03;;;;;;;7.85;5.43;;;11.70;93.60;;;;;;5078463;28;20270;-70
2022/12/17 16:18:30;;;;;;;5.43;4.70;;;11.70;94.20;;;;;;5076230;28;20186;-68
2022/12/17 16:21:02;;;;;;;5.38;4.35;;;11.70;93.90;;;;;;5080818;28;20219;-68
2022/12/17 16:23:27;;;;;;;7.93;4.97;;;11.70;94.10;;;;;;5078926;28;20190;-70
2022/12/17 16:26:01;;;;;;;8.32;5.55;;;11.70;94.00;;;;;;5080516;28;20193;-70
2022/12/17 16:28:27;;;;;;;10.70;6.53;;;11.70;93.60;;;;;;5079528;28;20315;-71
2022/12/17 16:31:08;;;;;;;13.85;7.45;;;11.70;93.90;;;;;;5078367;28;20258;-70
2022/12/17 16:33:38;;;;;;;12.88;7.70;;;11.60;93.40;;;;;;5074045;28;20273;-70
2022/12/17 16:36:06;;;;;;;10.13;7.53;;;11.60;93.40;;;;;;5077178;28;20256;-70
2022/12/17 16:38:33;;;;;;;9.00;6.60;;;11.50;93.30;;;;;;5075683;28;20186;-70
2022/12/17 16:41:00;;;;;;;14.20;7.28;;;11.50;93.30;;;;;;5079709;28;20209;-69
2022/12/17 16:43:31;;;;;;;9.65;6.60;;;11.50;93.90;;;;;;5077318;28;20810;-69
2022/12/17 16:45:56;;;;;;;15.27;7.18;;;11.50;94.30;;;;;;5075488;28;20624;-69
2022/12/17 16:48:23;;;;;;;16.23;7.47;;;11.50;94.10;;;;;;5077008;28;20179;-69
2022/12/17 16:50:49;;;;;;;13.88;8.10;;;11.50;94.10;;;;;;5077046;28;20218;-70
2022/12/17 16:53:17;;;;;;;15.35;8.80;;;11.50;94.00;;;;;;5077577;28;20185;-70
2022/12/17 16:55:48;;;;;;;16.45;9.20;;;11.40;94.10;;;;;;5080450;28;20186;-70
2022/12/17 16:58:17;;;;;;;11.43;7.35;;;11.40;93.70;;;;;;5077748;28;20768;-70
2022/12/17 17:00:44;;;;;;;12.90;7.75;;;11.30;93.40;;;;;;5075771;28;20186;-69
2022/12/17 17:03:09;;;;;;;9.48;6.68;;;11.30;93.50;;;;;;5075114;28;20182;-70
2022/12/17 17:05:38;;;;;;;13.55;6.85;;;11.30;93.60;;;;;;5078434;28;20314;-69
2022/12/17 17:08:05;;;;;;;9.00;7.05;;;11.30;93.90;;;;;;5081914;28;20702;-70
2022/12/17 17:10:33;;;;;;;10.73;7.20;;;11.30;94.10;;;;;;5083742;28;20239;-69
2022/12/17 17:12:59;;;;;;;7.35;6.60;;;11.30;94.60;;;;;;5082881;28;20206;-69
2022/12/17 17:15:24;;;;;;;9.32;6.43;;;11.30;94.50;;;;;;5083983;28;20674;-69
2022/12/17 17:17:50;;;;;;;9.65;6.20;;;11.30;94.60;;;;;;5084061;28;20210;-69
2022/12/17 17:20:16;;;;;;;11.48;7.45;;;11.30;94.60;;;;;;5084228;28;20182;-69
2022/12/17 17:22:43;;;;;;;10.15;7.03;;;11.20;94.40;;;;;;5082405;28;20178;-70
2022/12/17 17:25:08;;;;;;;18.98;8.50;;;11.20;94.30;;;;;;5083912;28;20221;-70
2022/12/17 17:27:34;;;;;;;11.05;8.13;;;11.20;94.30;;;;;;5083221;28;20790;-70
2022/12/17 17:30:00;;;;;;;12.52;7.57;;;11.10;94.40;;;;;;5077804;28;20574;-72
2022/12/17 17:32:26;;;;;;;9.20;7.25;;;11.10;94.50;;;;;;5081974;28;20592;-70
2022/12/17 17:34:51;;;;;;;13.85;7.68;;;11.10;94.40;;;;;;5078108;28;20186;-70
2022/12/17 17:37:17;;;;;;;13.32;7.90;;;11.10;94.30;;;;;;5079308;28;20186;-71
2022/12/17 17:39:43;;;;;;;9.95;7.78;;;11.00;94.00;;;;;;5082108;28;20175;-70
2022/12/17 17:42:09;;;;;;;14.75;8.68;;;11.00;94.40;;;;;;5081140;28;20186;-70
2022/12/17 17:44:36;;;;;;;17.27;10.35;;;11.00;94.30;;;;;;5078888;28;20193;-70
2022/12/17 17:47:01;;;;;;;12.98;7.30;;;11.00;94.30;;;;;;5082800;28;20668;-70
2022/12/17 17:49:27;;;;;;;9.48;7.28;;;10.90;94.20;;;;;;5080374;28;20193;-71
2022/12/17 17:51:53;;;;;;;15.65;8.88;;;10.90;94.20;;;;;;5082182;28;20182;-70
2022/12/17 17:54:19;;;;;;;20.58;10.85;;;10.90;94.10;;;;;;5081755;28;20186;-70
2022/12/17 17:56:44;;;;;;;14.18;10.13;;;10.90;94.20;;;;;;5079159;28;20182;-70
2022/12/17 17:59:17;;;;;;;20.38;11.30;;;10.90;94.50;;;;;;5080543;28;20247;-70
2022/12/17 18:01:46;;;;;;;16.00;9.95;;;10.80;95.10;;;;;;5076368;28;20703;-71
2022/12/17 18:04:15;;;;;;;13.15;9.77;;;10.70;95.10;;;;;;5077774;28;20179;-70
2022/12/17 18:06:43;;;;;;;13.25;9.73;;;10.80;95.00;;;;;;5080142;28;20352;-71
2022/12/17 18:09:10;;;;;;;12.85;9.65;;;10.80;94.90;;;;;;5075948;28;20265;-69
2022/12/17 18:11:37;;;;;;;15.82;10.35;;;10.80;95.20;;;;;;5078821;28;20190;-71
2022/12/17 18:14:06;;;;;;;16.92;10.63;;;10.80;95.00;;;;;;5078996;28;20273;-69
2022/12/17 18:16:44;;;;;;;19.38;11.57;;;10.80;94.50;;;;;;5081239;28;20190;-69
2022/12/17 18:19:12;;;;;;;15.20;10.40;;;10.80;94.60;;;;;;5080832;28;20246;-69
2022/12/17 18:21:38;;;;;;;17.45;11.70;;;10.70;94.70;;;;;;5080909;28;20182;-71
2022/12/17 18:24:09;;;;;;;23.85;13.25;;;10.70;94.70;;;;;;5079286;28;20190;-69
2022/12/17 18:26:38;;;;;;;25.25;14.10;;;10.70;94.50;;;;;;5078481;28;20718;-69
2022/12/17 18:29:12;;;;;;;28.35;14.98;;;10.60;94.60;;;;;;5078494;28;20182;-70
2022/12/17 18:31:37;;;;;;;21.48;14.05;;;10.70;94.90;;;;;;5078562;28;20193;-70
2022/12/17 18:34:05;;;;;;;34.17;15.52;;;10.60;94.90;;;;;;5081629;28;20564;-70
2022/12/17 18:36:34;;;;;;;22.23;14.75;;;10.60;95.10;;;;;;5079077;28;20189;-70
2022/12/17 18:39:04;;;;;;;20.85;12.55;;;10.60;94.90;;;;;;5078022;28;20190;-69
2022/12/17 18:44:14;;;;;;;21.60;11.05;;;10.60;95.40;;;;;;5078809;28;20197;-71
2022/12/17 18:46:40;;;;;;;16.77;11.48;;;10.50;95.80;;;;;;5078851;28;20202;-72
2022/12/17 18:49:09;;;;;;;20.30;10.77;;;10.40;95.70;;;;;;5080187;28;20193;-71
2022/12/17 18:51:36;;;;;;;22.45;12.15;;;10.30;96.10;;;;;;5080269;28;21000;-71
2022/12/17 18:54:05;;;;;;;21.10;12.52;;;10.30;96.10;;;;;;5080658;28;20197;-71
2022/12/17 18:56:31;;;;;;;21.92;13.93;;;10.30;96.30;;;;;;5079547;28;20179;-72
2022/12/17 18:58:57;;;;;;;17.20;11.05;;;10.20;96.80;;;;;;5075400;28;20190;-72
2022/12/17 19:01:34;;;;;;;20.38;10.77;;;10.20;96.80;;;;;;5076967;28;20193;-71
2022/12/17 19:04:06;;;;;;;14.70;10.02;;;10.20;96.80;;;;;;5077734;28;20221;-72
2022/12/17 19:06:33;;;;;;;18.10;9.73;;;10.10;96.80;;;;;;5077094;28;20211;-72
2022/12/17 19:09:00;;;;;;;12.27;8.63;;;10.10;96.80;;;;;;5076234;28;20174;-72
2022/12/17 19:11:25;;;;;;;11.13;7.78;;;10.10;96.80;;;;;;5075715;28;20180;-71
2022/12/17 19:13:51;;;;;;;9.32;7.32;;;10.00;97.10;;;;;;5080195;28;20182;-70
2022/12/17 19:16:22;;;;;;;9.77;7.07;;;10.00;97.00;;;;;;5078983;28;20182;-71
2022/12/17 19:18:56;;;;;;;7.57;6.53;;;10.00;97.20;;;;;;5077794;28;20616;-70
2022/12/17 19:21:23;;;;;;;9.43;6.78;;;10.00;97.00;;;;;;5072275;28;20789;-71
2022/12/17 19:23:53;;;;;;;11.02;6.45;;;10.00;97.20;;;;;;5079206;28;20183;-70
2022/12/17 19:26:20;;;;;;;9.48;6.32;;;9.90;97.60;;;;;;5079760;28;20605;-72
2022/12/17 19:28:49;;;;;;;12.38;7.60;;;9.90;97.60;;;;;;5076619;28;20219;-73
2022/12/17 19:31:16;;;;;;;8.13;6.60;;;10.00;97.30;;;;;;5076644;28;20666;-71
2022/12/17 19:33:42;;;;;;;11.50;6.95;;;10.00;97.30;;;;;;5076377;28;20246;-71
2022/12/17 19:36:11;;;;;;;8.15;6.05;;;9.90;97.20;;;;;;5077844;28;20612;-70
2022/12/17 19:38:37;;;;;;;7.00;5.85;;;9.90;97.30;;;;;;5077518;28;20278;-70
2022/12/17 19:41:14;;;;;;;7.78;5.88;;;9.90;97.10;;;;;;5081621;28;20182;-70
2022/12/17 19:43:45;;;;;;;5.18;4.68;;;9.90;97.30;;;;;;5078425;28;20287;-70
2022/12/17 19:46:16;;;;;;;6.65;4.38;;;9.90;97.60;;;;;;5075977;28;20194;-70
2022/12/17 19:48:46;;;;;;;5.03;4.55;;;9.90;97.40;;;;;;5075087;28;20206;-71
2022/12/17 19:51:14;;;;;;;4.70;4.32;;;9.90;97.40;;;;;;5080179;28;20222;-70
2022/12/17 19:53:43;;;;;;;4.85;4.43;;;9.90;97.20;;;;;;5075719;28;20178;-70
2022/12/17 19:56:10;;;;;;;4.90;4.47;;;9.90;97.20;;;;;;5075106;28;20573;-70
2022/12/17 19:58:36;;;;;;;4.93;4.53;;;9.80;97.70;;;;;;5076066;28;20263;-70
2022/12/17 20:01:12;;;;;;;4.88;4.47;;;9.80;97.70;;;;;;5080043;28;20281;-70
2022/12/17 20:03:38;;;;;;;7.57;5.10;;;9.70;97.90;;;;;;5077996;28;20186;-70
2022/12/17 20:06:05;;;;;;;5.90;5.30;;;9.70;97.80;;;;;;5079168;28;20182;-70
2022/12/17 20:08:34;;;;;;;5.10;4.60;;;9.70;98.10;;;;;;5076930;28;20178;-71
2022/12/17 20:11:01;;;;;;;11.43;4.88;;;9.70;98.10;;;;;;5078322;28;20217;-70
2022/12/17 20:13:27;;;;;;;8.23;5.45;;;9.70;98.50;;;;;;5078332;28;20178;-70
2022/12/17 20:16:01;;;;;;;5.10;4.25;;;9.70;98.50;;;;;;5080277;28;20197;-70
2022/12/17 20:18:29;;;;;;;5.72;5.22;;;9.70;98.50;;;;;;5077203;28;20182;-70
2022/12/17 20:21:05;;;;;;;7.80;4.88;;;9.70;98.50;;;;;;5079160;28;20194;-69
2022/12/17 20:23:31;;;;;;;6.00;4.93;;;9.70;98.50;;;;;;5077897;28;20209;-70
2022/12/17 20:26:04;;;;;;;4.97;4.55;;;9.70;98.50;;;;;;5071941;28;20205;-69
2022/12/17 20:28:32;;;;;;;6.70;5.22;;;9.70;98.50;;;;;;5078394;28;20706;-69
2022/12/17 20:30:59;;;;;;;4.60;4.20;;;9.60;98.50;;;;;;5078859;28;20296;-69
2022/12/17 20:33:24;;;;;;;8.98;4.45;;;9.70;98.50;;;;;;5079971;28;20237;-69
2022/12/17 20:35:50;;;;;;;4.93;4.47;;;9.70;98.50;;;;;;5079776;28;20690;-70
2022/12/17 20:38:17;;;;;;;5.63;4.90;;;9.70;98.50;;;;;;5081421;28;20201;-69
2022/12/17 20:40:43;;;;;;;4.85;4.43;;;9.70;98.50;;;;;;5078940;28;20921;-70
2022/12/17 20:43:08;;;;;;;4.45;4.00;;;9.70;98.50;;;;;;5080924;28;20185;-70
2022/12/17 20:45:34;;;;;;;5.03;4.55;;;9.70;98.50;;;;;;5083464;28;20703;-70
2022/12/17 20:48:00;;;;;;;5.82;4.30;;;9.70;98.50;;;;;;5083163;28;20214;-69
2022/12/17 20:50:26;;;;;;;4.90;4.13;;;9.70;98.50;;;;;;5078960;28;20909;-70
2022/12/17 20:52:51;;;;;;;5.10;4.60;;;9.60;98.50;;;;;;5078113;28;20202;-70
2022/12/17 20:55:17;;;;;;;5.20;3.90;;;9.50;98.50;;;;;;5081344;28;21165;-70
2022/12/17 20:57:43;;;;;;;4.50;4.20;;;9.50;98.50;;;;;;5082649;28;20182;-70
2022/12/17 21:00:09;;;;;;;4.57;4.18;;;9.60;98.50;;;;;;5080934;28;20190;-70
2022/12/17 21:02:35;;;;;;;20.45;4.15;;;9.60;98.50;;;;;;5082497;28;21009;-69
2022/12/17 21:05:02;;;;;;;5.22;3.88;;;9.60;98.50;;;;;;5079610;28;20186;-69
2022/12/17 21:07:28;;;;;;;3.85;3.20;;;9.60;98.50;;;;;;5081350;28;20707;-69
2022/12/17 21:09:53;;;;;;;4.43;3.90;;;9.50;98.50;;;;;;5081375;28;20213;-70
2022/12/17 21:12:19;;;;;;;4.05;3.75;;;9.50;98.50;;;;;;5083530;28;20205;-70
2022/12/17 21:14:44;;;;;;;3.50;3.30;;;9.50;98.50;;;;;;5081620;28;20183;-70
2022/12/17 21:17:10;;;;;;;3.80;3.50;;;9.50;98.50;;;;;;5081626;28;20182;-69
2022/12/17 21:19:36;;;;;;;4.57;3.78;;;9.50;98.50;;;;;;5081857;28;20193;-70
2022/12/17 21:22:01;;;;;;;3.50;3.08;;;9.50;98.40;;;;;;5083276;28;21026;-71
2022/12/17 21:24:27;;;;;;;3.67;3.42;;;9.50;98.30;;;;;;5082407;28;20183;-71
2022/12/17 21:26:53;;;;;;;4.38;4.07;;;9.50;98.40;;;;;;5082900;28;20238;-70
2022/12/17 21:29:19;;;;;;;3.42;3.13;;;9.50;98.20;;;;;;5083781;28;20212;-70
2022/12/17 21:31:49;;;;;;;3.55;3.35;;;9.40;98.20;;;;;;5082675;28;20186;-70
2022/12/17 21:34:20;;;;;;;3.97;3.28;;;9.30;98.20;;;;;;5083182;28;20226;-70
2022/12/17 21:36:47;;;;;;;4.05;3.78;;;9.30;98.10;;;;;;5083015;28;20178;-72
2022/12/17 21:39:14;;;;;;;3.78;3.45;;;9.40;98.10;;;;;;5082041;28;20646;-71
2022/12/17 21:41:42;;;;;;;2.95;2.75;;;9.30;98.10;;;;;;5081382;28;20282;-70
2022/12/17 21:44:11;;;;;;;2.72;2.53;;;9.30;98.10;;;;;;5083427;28;20300;-71
2022/12/17 21:46:37;;;;;;;3.42;3.13;;;9.20;98.20;;;;;;5081608;28;20206;-71
2022/12/17 21:49:03;;;;;;;3.55;3.33;;;9.10;98.20;;;;;;5082903;28;20182;-70
2022/12/17 21:51:30;;;;;;;2.90;2.70;;;9.10;98.40;;;;;;5080054;28;20187;-71
2022/12/17 21:54:01;;;;;;;2.83;2.63;;;9.20;98.00;;;;;;5081872;28;20564;-71
2022/12/17 21:56:28;;;;;;;3.00;2.80;;;9.10;98.10;;;;;;5082786;28;20249;-71
2022/12/17 21:58:58;;;;;;;2.88;2.67;;;9.20;97.80;;;;;;5080449;28;20699;-71
2022/12/17 22:01:30;;;;;;;2.60;2.50;;;9.10;97.50;;;;;;5083992;28;20220;-71
2022/12/17 22:03:57;;;;;;;2.22;2.13;;;9.10;97.60;;;;;;5082926;28;20180;-71
2022/12/17 22:06:25;;;;;;;2.08;1.98;;;9.00;97.60;;;;;;5083084;28;20210;-69
2022/12/17 22:08:50;;;;;;;2.85;2.63;;;8.90;97.70;;;;;;5082969;28;20182;-69
2022/12/17 22:11:21;;;;;;;3.70;2.25;;;9.00;97.80;;;;;;5082975;28;20597;-70
2022/12/17 22:14:08;;;;;;;2.85;2.35;;;8.90;97.70;;;;;;5083467;28;20339;-72
2022/12/17 22:16:38;;;;;;;2.35;2.25;;;9.00;97.60;;;;;;5081228;28;20247;-71
2022/12/17 22:19:06;;;;;;;2.05;1.95;;;9.00;97.60;;;;;;5082400;28;20174;-71
2022/12/17 22:21:37;;;;;;;1.90;1.80;;;8.90;97.40;;;;;;5080331;28;20288;-70
2022/12/17 22:24:03;;;;;;;1.77;1.67;;;9.00;97.40;;;;;;5082753;28;20178;-70
2022/12/17 22:26:29;;;;;;;2.00;1.90;;;8.90;97.00;;;;;;5081386;28;20698;-71
2022/12/17 22:28:55;;;;;;;1.30;1.20;;;9.00;96.70;;;;;;5081015;28;20583;-71
2022/12/17 22:34:09;;;;;;;1.55;1.48;;;9.00;96.20;;;;;;5079880;28;20201;-71
2022/12/17 22:36:34;;;;;;;1.63;1.52;;;9.00;95.90;;;;;;5082841;28;20296;-71
2022/12/17 22:39:03;;;;;;;1.70;1.60;;;8.90;95.70;;;;;;5082360;28;20280;-71
2022/12/17 22:44:13;;;;;;;0.95;0.95;;;8.90;95.70;;;;;;5081413;28;20200;-70
2022/12/17 22:46:39;;;;;;;1.35;1.30;;;8.80;95.50;;;;;;5080730;28;20551;-71
2022/12/17 22:49:05;;;;;;;1.40;1.30;;;8.70;95.50;;;;;;5081718;28;20189;-70
2022/12/17 22:51:31;;;;;;;1.02;1.00;;;8.70;95.50;;;;;;5082553;28;20182;-71
2022/12/17 22:54:00;;;;;;;1.48;1.38;;;8.70;95.30;;;;;;5081801;28;20186;-71
2022/12/17 22:56:26;;;;;;;1.40;1.40;;;8.60;95.30;;;;;;5079268;28;20268;-70
2022/12/17 22:58:51;;;;;;;1.30;1.20;;;8.60;95.40;;;;;;5081443;28;20193;-71
2022/12/17 23:01:17;;;;;;;1.33;1.33;;;8.60;95.10;;;;;;5081266;28;20182;-71
2022/12/17 23:03:42;;;;;;;1.15;1.15;;;8.60;95.10;;;;;;5078168;28;21667;-70
2022/12/17 23:06:13;;;;;;;0.90;0.90;;;8.60;95.00;;;;;;5081743;28;20278;-71
2022/12/17 23:08:39;;;;;;;1.50;1.50;;;8.50;95.10;;;;;;5078788;28;20340;-71
2022/12/17 23:11:11;;;;;;;1.27;1.17;;;8.40;95.10;;;;;;5080890;28;20182;-70
2022/12/17 23:13:37;;;;;;;1.13;1.13;;;8.40;95.20;;;;;;5081895;28;20270;-71
2022/12/17 23:16:04;;;;;;;1.00;1.00;;;8.30;95.00;;;;;;5082085;28;20283;-71
2022/12/17 23:18:31;;;;;;;2.80;1.40;;;8.20;95.20;;;;;;5078595;28;20248;-70
2022/12/17 23:21:11;;;;;;;1.23;1.20;;;8.20;95.20;;;;;;5081580;28;20231;-70
2022/12/17 23:23:37;;;;;;;1.15;1.15;;;8.10;95.10;;;;;;5080834;28;20182;-69
2022/12/17 23:26:07;;;;;;;1.10;1.10;;;8.10;95.20;;;;;;5080921;28;20185;-70
2022/12/17 23:28:32;;;;;;;1.60;1.40;;;8.20;95.10;;;;;;5079490;28;20214;-70
2022/12/17 23:31:05;;;;;;;2.08;1.00;;;8.10;95.00;;;;;;5081436;28;20255;-69
2022/12/17 23:33:31;;;;;;;1.48;1.10;;;8.10;94.90;;;;;;5080543;28;20182;-70
2022/12/17 23:36:08;;;;;;;1.15;1.10;;;8.10;95.10;;;;;;5080135;28;20660;-70
2022/12/17 23:38:34;;;;;;;1.00;1.00;;;8.10;94.80;;;;;;5081304;28;20238;-69
2022/12/17 23:41:09;;;;;;;1.63;1.53;;;8.00;94.70;;;;;;5080847;28;20656;-69
2022/12/17 23:43:36;;;;;;;0.83;0.83;;;8.00;94.80;;;;;;5082153;28;20192;-69
2022/12/17 23:46:02;;;;;;;1.65;1.55;;;7.90;94.70;;;;;;5082674;28;20274;-70
2022/12/17 23:48:30;;;;;;;1.47;1.40;;;7.90;94.80;;;;;;5078506;28;21147;-71
2022/12/17 23:50:56;;;;;;;1.27;1.17;;;7.90;94.90;;;;;;5081705;28;20178;-70
2022/12/17 23:53:22;;;;;;;1.45;1.45;;;7.90;94.70;;;;;;5082103;28;21111;-70
2022/12/17 23:55:48;;;;;;;1.03;1.03;;;7.90;94.60;;;;;;5081232;28;20190;-70
2022/12/17 23:58:14;;;;;;;3.40;1.33;;;7.80;94.20;;;;;;5081447;28;20253;-70
